Terminal Aerodrome Forecast
Issued by NWS Charleston, WV

Current Version | Previous Version | Graphics & Text | Print | Product List | Glossary On
Versions: 1 2 3 4 5 6 7 8 9 10 11 12 13 14 15 16 17 18 19 20 21 22 23 24 25 26 27 28 29
174
FTUS41 KRLX 281730
TAFPKB
TAF
KPKB 281730Z 2818/2918 18007KT P6SM SCT150
     FM281900 22006KT P6SM SCT250
     FM282200 35004KT P6SM BKN080
     FM291700 00000KT 6SM -SHRA OVC130=

USA.gov is the U.S. government's official web portal to all federal, state and local government web resources and services.